PWSweather.com
Personal Weather Stations
Station Observations
KCAOCEAN4
Jeffries Ranch, Oceanside, CA 92057

Jeffries RanchOceanside, CA 92057

Lat: 33.2463208, Lon: -117.25335080000002

Elevation: 207

Station Type: Davis Vantage Vue

jeffriesranchweather.com

High Low Average
Temperature 58.3°F14.6°C 37.6°F3.1°C 48.1°F8.9°C
Dew Point 47.5°F8.6°C 34.3°F1.3°C 40.9°F4.9°C
Winds 6.9 mph 11.1 kmh Calm Calm 2.0 mph SSE3.2 kmh SSE
Wind Gusts 16.1 mph25.9 kmh -- 6.0 mph9.7 kmh
Humidity 89% 58% 77%
Pressure 30.24 in1024.0 mb 30.15 in1021.0 mb -
Precipitation 0.00 in0.0 mm - -
Hour Temp Dew Point Humidity Winds Wind Gusts Pressure Precip Precip Rate Daily Precip Total
12:05 AM 39.0°F3.9°C 35.2°F1.8°C 86% 0.9 mph ENE1.4 kmh ENE 4.0 mph6.4 kmh 30.17 in1021.7 mb 0.00 in0.0 mm 0.00 in0.0 mm 0.00 in0.0 mm
12:15 AM 38.8°F3.8°C 35.2°F1.8°C 87% 0.9 mph ENE1.4 kmh ENE 4.0 mph6.4 kmh 30.17 in1021.7 mb 0.00 in0.0 mm 0.00 in0.0 mm 0.00 in0.0 mm
12:25 AM 38.8°F3.8°C 35.2°F1.8°C 87% 2.0 mph E3.2 kmh E 5.0 mph8.0 kmh 30.17 in1021.7 mb 0.00 in0.0 mm 0.00 in0.0 mm 0.00 in0.0 mm
12:35 AM 38.7°F3.7°C 35.1°F1.7°C 87% 0.9 mph ENE1.4 kmh ENE 2.9 mph4.7 kmh 30.17 in1021.7 mb 0.00 in0.0 mm 0.00 in0.0 mm 0.00 in0.0 mm
12:45 AM 38.3°F3.5°C 34.7°F1.5°C 87% 0.9 mph E1.4 kmh E 2.9 mph4.7 kmh 30.16 in1021.3 mb 0.00 in0.0 mm 0.00 in0.0 mm 0.00 in0.0 mm
12:55 AM 37.9°F3.3°C 34.3°F1.3°C 87% 0.9 mph E1.4 kmh E 4.0 mph6.4 kmh 30.16 in1021.3 mb 0.00 in0.0 mm 0.00 in0.0 mm 0.00 in0.0 mm
01:05 AM 37.8°F3.2°C 34.5°F1.4°C 88% 0.9 mph ENE1.4 kmh ENE 3.0 mph4.8 kmh 30.17 in1021.7 mb 0.00 in0.0 mm 0.00 in0.0 mm 0.00 in0.0 mm
01:15 AM 37.9°F3.3°C 34.7°F1.5°C 88% 2.0 mph NE3.2 kmh NE 4.9 mph7.9 kmh 30.17 in1021.7 mb 0.00 in0.0 mm 0.00 in0.0 mm 0.00 in0.0 mm
01:25 AM 37.9°F3.3°C 34.7°F1.5°C 88% 2.0 mph ENE3.2 kmh ENE 4.9 mph7.9 kmh 30.17 in1021.7 mb 0.00 in0.0 mm 0.00 in0.0 mm 0.00 in0.0 mm
01:35 AM 37.9°F3.3°C 34.7°F1.5°C 88% 2.0 mph NE3.2 kmh NE 4.9 mph7.9 kmh 30.17 in1021.7 mb 0.00 in0.0 mm 0.00 in0.0 mm 0.00 in0.0 mm
01:45 AM 37.8°F3.2°C 34.5°F1.4°C 88% 2.0 mph ENE3.2 kmh ENE 6.0 mph9.7 kmh 30.18 in1022.0 mb 0.00 in0.0 mm 0.00 in0.0 mm 0.00 in0.0 mm
01:55 AM 37.6°F3.1°C 34.3°F1.3°C 88% 2.0 mph ENE3.2 kmh ENE 4.0 mph6.4 kmh 30.18 in1022.0 mb 0.00 in0.0 mm 0.00 in0.0 mm 0.00 in0.0 mm
02:05 AM 37.6°F3.1°C 34.3°F1.3°C 88% 0.9 mph E1.4 kmh E 4.9 mph7.9 kmh 30.17 in1021.7 mb 0.00 in0.0 mm 0.00 in0.0 mm 0.00 in0.0 mm
02:15 AM 37.6°F3.1°C 34.3°F1.3°C 88% 2.9 mph ENE4.7 kmh ENE 7.0 mph11.3 kmh 30.17 in1021.7 mb 0.00 in0.0 mm 0.00 in0.0 mm 0.00 in0.0 mm
02:25 AM 37.8°F3.2°C 34.5°F1.4°C 88% 2.0 mph ENE3.2 kmh ENE 6.0 mph9.7 kmh 30.17 in1021.7 mb 0.00 in0.0 mm 0.00 in0.0 mm 0.00 in0.0 mm
02:35 AM 37.8°F3.2°C 34.5°F1.4°C 88% 2.9 mph ENE4.7 kmh ENE 6.0 mph9.7 kmh 30.17 in1021.7 mb 0.00 in0.0 mm 0.00 in0.0 mm 0.00 in0.0 mm
02:45 AM 37.9°F3.3°C 34.7°F1.5°C 88% 2.9 mph NE4.7 kmh NE 6.0 mph9.7 kmh 30.17 in1021.7 mb 0.00 in0.0 mm 0.00 in0.0 mm 0.00 in0.0 mm
02:55 AM 38.3°F3.5°C 35.1°F1.7°C 88% 2.0 mph ESE3.2 kmh ESE 4.9 mph7.9 kmh 30.17 in1021.7 mb 0.00 in0.0 mm 0.00 in0.0 mm 0.00 in0.0 mm
03:05 AM 38.5°F3.6°C 35.2°F1.8°C 88% 0.9 mph E1.4 kmh E 4.0 mph6.4 kmh 30.17 in1021.7 mb 0.00 in0.0 mm 0.00 in0.0 mm 0.00 in0.0 mm
03:15 AM 38.5°F3.6°C 34.9°F1.6°C 87% 2.0 mph ENE3.2 kmh ENE 5.0 mph8.0 kmh 30.17 in1021.7 mb 0.00 in0.0 mm 0.00 in0.0 mm 0.00 in0.0 mm
03:25 AM 38.5°F3.6°C 34.9°F1.6°C 87% 2.0 mph ENE3.2 kmh ENE 4.9 mph7.9 kmh 30.17 in1021.7 mb 0.00 in0.0 mm 0.00 in0.0 mm 0.00 in0.0 mm
03:35 AM 38.5°F3.6°C 34.9°F1.6°C 87% 0.9 mph E1.4 kmh E 4.0 mph6.4 kmh 30.17 in1021.7 mb 0.00 in0.0 mm 0.00 in0.0 mm 0.00 in0.0 mm
03:45 AM 38.3°F3.5°C 34.7°F1.5°C 87% 0.9 mph ENE1.4 kmh ENE 2.9 mph4.7 kmh 30.17 in1021.7 mb 0.00 in0.0 mm 0.00 in0.0 mm 0.00 in0.0 mm
03:55 AM 38.3°F3.5°C 34.7°F1.5°C 87% 0.9 mph E1.4 kmh E 4.0 mph6.4 kmh 30.17 in1021.7 mb 0.00 in0.0 mm 0.00 in0.0 mm 0.00 in0.0 mm
04:05 AM 38.1°F3.4°C 34.9°F1.6°C 88% 0.9 mph ESE1.4 kmh ESE 2.9 mph4.7 kmh 30.17 in1021.7 mb 0.00 in0.0 mm 0.00 in0.0 mm 0.00 in0.0 mm
04:15 AM 38.1°F3.4°C 34.9°F1.6°C 88% 2.0 mph E3.2 kmh E 5.0 mph8.0 kmh 30.17 in1021.7 mb 0.00 in0.0 mm 0.00 in0.0 mm 0.00 in0.0 mm
04:25 AM 38.3°F3.5°C 35.1°F1.7°C 88% 2.0 mph ENE3.2 kmh ENE 7.0 mph11.3 kmh 30.18 in1022.0 mb 0.00 in0.0 mm 0.00 in0.0 mm 0.00 in0.0 mm
04:35 AM 38.5°F3.6°C 34.9°F1.6°C 87% 2.0 mph ENE3.2 kmh ENE 4.9 mph7.9 kmh 30.18 in1022.0 mb 0.00 in0.0 mm 0.00 in0.0 mm 0.00 in0.0 mm
04:45 AM 38.1°F3.4°C 34.5°F1.4°C 87% 2.0 mph NE3.2 kmh NE 4.9 mph7.9 kmh 30.18 in1022.0 mb 0.00 in0.0 mm 0.00 in0.0 mm 0.00 in0.0 mm
04:55 AM 37.9°F3.3°C 34.3°F1.3°C 87% 2.0 mph NE3.2 kmh NE 6.0 mph9.7 kmh 30.19 in1022.4 mb 0.00 in0.0 mm 0.00 in0.0 mm 0.00 in0.0 mm
05:05 AM 37.9°F3.3°C 34.7°F1.5°C 88% 0.9 mph NNW1.4 kmh NNW 2.9 mph4.7 kmh 30.19 in1022.4 mb 0.00 in0.0 mm 0.00 in0.0 mm 0.00 in0.0 mm
05:15 AM 37.8°F3.2°C 34.5°F1.4°C 88% 0.9 mph ENE1.4 kmh ENE 3.0 mph4.8 kmh 30.19 in1022.4 mb 0.00 in0.0 mm 0.00 in0.0 mm 0.00 in0.0 mm
05:25 AM 37.8°F3.2°C 34.5°F1.4°C 88% 2.0 mph ENE3.2 kmh ENE 4.0 mph6.4 kmh 30.19 in1022.4 mb 0.00 in0.0 mm 0.00 in0.0 mm 0.00 in0.0 mm
05:35 AM 37.9°F3.3°C 35.1°F1.7°C 89% 2.0 mph E3.2 kmh E 5.0 mph8.0 kmh 30.19 in1022.4 mb 0.00 in0.0 mm 0.00 in0.0 mm 0.00 in0.0 mm
05:45 AM 38.1°F3.4°C 34.9°F1.6°C 88% 2.0 mph NE3.2 kmh NE 4.0 mph6.4 kmh 30.19 in1022.4 mb 0.00 in0.0 mm 0.00 in0.0 mm 0.00 in0.0 mm
05:55 AM 38.1°F3.4°C 34.9°F1.6°C 88% 2.9 mph E4.7 kmh E 7.0 mph11.3 kmh 30.19 in1022.4 mb 0.00 in0.0 mm 0.00 in0.0 mm 0.00 in0.0 mm
06:05 AM 38.1°F3.4°C 34.9°F1.6°C 88% 2.9 mph E4.7 kmh E 6.0 mph9.7 kmh 30.19 in1022.4 mb 0.00 in0.0 mm 0.00 in0.0 mm 0.00 in0.0 mm
06:15 AM 37.9°F3.3°C 34.7°F1.5°C 88% 2.9 mph NE4.7 kmh NE 6.0 mph9.7 kmh 30.19 in1022.4 mb 0.00 in0.0 mm 0.00 in0.0 mm 0.00 in0.0 mm
06:25 AM 37.9°F3.3°C 34.7°F1.5°C 88% 2.0 mph ENE3.2 kmh ENE 4.9 mph7.9 kmh 30.20 in1022.7 mb 0.00 in0.0 mm 0.00 in0.0 mm 0.00 in0.0 mm
06:35 AM 37.8°F3.2°C 34.9°F1.6°C 89% 2.0 mph NNE3.2 kmh NNE 6.0 mph9.7 kmh 30.20 in1022.7 mb 0.00 in0.0 mm 0.00 in0.0 mm 0.00 in0.0 mm
06:45 AM 37.6°F3.1°C 34.7°F1.5°C 89% 0.9 mph ENE1.4 kmh ENE 4.9 mph7.9 kmh 30.21 in1023.0 mb 0.00 in0.0 mm 0.00 in0.0 mm 0.00 in0.0 mm
06:55 AM 37.9°F3.3°C 35.1°F1.7°C 89% 2.0 mph NE3.2 kmh NE 4.9 mph7.9 kmh 30.21 in1023.0 mb 0.00 in0.0 mm 0.00 in0.0 mm 0.00 in0.0 mm
07:05 AM 38.5°F3.6°C 35.2°F1.8°C 88% 2.0 mph NE3.2 kmh NE 4.0 mph6.4 kmh 30.21 in1023.0 mb 0.00 in0.0 mm 0.00 in0.0 mm 0.00 in0.0 mm
07:15 AM 38.8°F3.8°C 35.6°F2.0°C 88% 0.9 mph ENE1.4 kmh ENE 4.0 mph6.4 kmh 30.22 in1023.4 mb 0.00 in0.0 mm 0.00 in0.0 mm 0.00 in0.0 mm
07:25 AM 39.4°F4.1°C 35.8°F2.1°C 87% 2.9 mph ENE4.7 kmh ENE 6.0 mph9.7 kmh 30.22 in1023.4 mb 0.00 in0.0 mm 0.00 in0.0 mm 0.00 in0.0 mm
07:35 AM 40.3°F4.6°C 36.5°F2.5°C 86% 2.9 mph NE4.7 kmh NE 6.0 mph9.7 kmh 30.22 in1023.4 mb 0.00 in0.0 mm 0.00 in0.0 mm 0.00 in0.0 mm
07:45 AM 41.4°F5.2°C 36.9°F2.7°C 84% 2.9 mph NE4.7 kmh NE 6.0 mph9.7 kmh 30.22 in1023.4 mb 0.00 in0.0 mm 0.00 in0.0 mm 0.00 in0.0 mm
07:55 AM 42.4°F5.8°C 37.6°F3.1°C 83% 2.9 mph ENE4.7 kmh ENE 6.9 mph11.1 kmh 30.23 in1023.7 mb 0.00 in0.0 mm 0.00 in0.0 mm 0.00 in0.0 mm
08:05 AM 43.7°F6.5°C 38.3°F3.5°C 81% 2.9 mph NE4.7 kmh NE 6.9 mph11.1 kmh 30.23 in1023.7 mb 0.00 in0.0 mm 0.00 in0.0 mm 0.00 in0.0 mm
08:15 AM 44.8°F7.1°C 38.7°F3.7°C 79% 2.9 mph ENE4.7 kmh ENE 6.9 mph11.1 kmh 30.23 in1023.7 mb 0.00 in0.0 mm 0.00 in0.0 mm 0.00 in0.0 mm
08:25 AM 46.0°F7.8°C 39.6°F4.2°C 78% 2.9 mph NNE4.7 kmh NNE 4.9 mph7.9 kmh 30.23 in1023.7 mb 0.00 in0.0 mm 0.00 in0.0 mm 0.00 in0.0 mm
08:35 AM 47.5°F8.6°C 40.3°F4.6°C 76% 2.0 mph NE3.2 kmh NE 4.9 mph7.9 kmh 30.23 in1023.7 mb 0.00 in0.0 mm 0.00 in0.0 mm 0.00 in0.0 mm
08:45 AM 48.6°F9.2°C 40.3°F4.6°C 73% 0.9 mph NE1.4 kmh NE 2.9 mph4.7 kmh 30.24 in1024.0 mb 0.00 in0.0 mm 0.00 in0.0 mm 0.00 in0.0 mm
08:55 AM 50.0°F10.0°C 41.7°F5.4°C 73% Calm Calm 2.0 mph3.2 kmh 30.23 in1023.7 mb 0.00 in0.0 mm 0.00 in0.0 mm 0.00 in0.0 mm
09:05 AM 52.3°F11.3°C 42.8°F6.0°C 70% Calm Calm 2.0 mph3.2 kmh 30.23 in1023.7 mb 0.00 in0.0 mm 0.00 in0.0 mm 0.00 in0.0 mm
09:15 AM 54.5°F12.5°C 43.0°F6.1°C 65% 2.9 mph SW4.7 kmh SW 8.1 mph13.0 kmh 30.23 in1023.7 mb 0.00 in0.0 mm 0.00 in0.0 mm 0.00 in0.0 mm
09:25 AM 55.6°F13.1°C 43.5°F6.4°C 64% 2.9 mph SW4.7 kmh SW 6.0 mph9.7 kmh 30.23 in1023.7 mb 0.00 in0.0 mm 0.00 in0.0 mm 0.00 in0.0 mm
09:35 AM 55.9°F13.3°C 43.5°F6.4°C 63% 2.9 mph W4.7 kmh W 8.1 mph13.0 kmh 30.24 in1024.0 mb 0.00 in0.0 mm 0.00 in0.0 mm 0.00 in0.0 mm
09:45 AM 56.1°F13.4°C 43.7°F6.5°C 63% 2.0 mph SE3.2 kmh SE 6.9 mph11.1 kmh 30.24 in1024.0 mb 0.00 in0.0 mm 0.00 in0.0 mm 0.00 in0.0 mm
09:56 AM 55.9°F13.3°C 43.9°F6.6°C 64% 2.9 mph SSW4.7 kmh SSW 10.1 mph16.3 kmh 30.24 in1024.0 mb 0.00 in0.0 mm 0.00 in0.0 mm 0.00 in0.0 mm
10:06 AM 55.6°F13.1°C 44.4°F6.9°C 66% 2.9 mph W4.7 kmh W 6.0 mph9.7 kmh 30.24 in1024.0 mb 0.00 in0.0 mm 0.00 in0.0 mm 0.00 in0.0 mm
10:16 AM 55.2°F12.9°C 44.1°F6.7°C 66% 2.0 mph SW3.2 kmh SW 7.0 mph11.3 kmh 30.24 in1024.0 mb 0.00 in0.0 mm 0.00 in0.0 mm 0.00 in0.0 mm
10:26 AM 55.8°F13.2°C 44.6°F7.0°C 66% 2.9 mph WSW4.7 kmh WSW 8.9 mph14.3 kmh 30.24 in1024.0 mb 0.00 in0.0 mm 0.00 in0.0 mm 0.00 in0.0 mm
10:36 AM 55.8°F13.2°C 44.2°F6.8°C 65% 4.0 mph W6.4 kmh W 8.1 mph13.0 kmh 30.24 in1024.0 mb 0.00 in0.0 mm 0.00 in0.0 mm 0.00 in0.0 mm
10:46 AM 56.8°F13.8°C 45.1°F7.3°C 65% 4.0 mph W6.4 kmh W 12.1 mph19.5 kmh 30.24 in1024.0 mb 0.00 in0.0 mm 0.00 in0.0 mm 0.00 in0.0 mm
10:56 AM 56.7°F13.7°C 45.0°F7.2°C 65% 6.0 mph WSW9.7 kmh WSW 11.0 mph17.7 kmh 30.24 in1024.0 mb 0.00 in0.0 mm 0.00 in0.0 mm 0.00 in0.0 mm
11:06 AM 56.1°F13.4°C 45.0°F7.2°C 66% 4.0 mph S6.4 kmh S 8.9 mph14.3 kmh 30.23 in1023.7 mb 0.00 in0.0 mm 0.00 in0.0 mm 0.00 in0.0 mm
11:16 AM 55.4°F13.0°C 45.0°F7.2°C 68% 4.0 mph SW6.4 kmh SW 8.9 mph14.3 kmh 30.23 in1023.7 mb 0.00 in0.0 mm 0.00 in0.0 mm 0.00 in0.0 mm
11:26 AM 55.8°F13.2°C 45.0°F7.2°C 67% 4.0 mph W6.4 kmh W 8.1 mph13.0 kmh 30.23 in1023.7 mb 0.00 in0.0 mm 0.00 in0.0 mm 0.00 in0.0 mm
11:36 AM 55.8°F13.2°C 45.7°F7.6°C 69% 4.0 mph SW6.4 kmh SW 8.9 mph14.3 kmh 30.22 in1023.4 mb 0.00 in0.0 mm 0.00 in0.0 mm 0.00 in0.0 mm
11:46 AM 57.0°F13.9°C 45.0°F7.2°C 64% 6.0 mph SW9.7 kmh SW 14.1 mph22.7 kmh 30.22 in1023.4 mb 0.00 in0.0 mm 0.00 in0.0 mm 0.00 in0.0 mm
11:56 AM 55.9°F13.3°C 45.9°F7.7°C 69% 6.0 mph SW9.7 kmh SW 15.0 mph24.1 kmh 30.22 in1023.4 mb 0.00 in0.0 mm 0.00 in0.0 mm 0.00 in0.0 mm
12:06 PM 54.0°F12.2°C 46.6°F8.1°C 76% 6.0 mph SSW9.7 kmh SSW 15.0 mph24.1 kmh 30.22 in1023.4 mb 0.00 in0.0 mm 0.00 in0.0 mm 0.00 in0.0 mm
12:16 PM 53.2°F11.8°C 47.5°F8.6°C 81% 4.9 mph SSW7.9 kmh SSW 14.1 mph22.7 kmh 30.22 in1023.4 mb 0.00 in0.0 mm 0.00 in0.0 mm 0.00 in0.0 mm
12:26 PM 53.8°F12.1°C 47.5°F8.6°C 79% 4.0 mph SE6.4 kmh SE 8.9 mph14.3 kmh 30.22 in1023.4 mb 0.00 in0.0 mm 0.00 in0.0 mm 0.00 in0.0 mm
12:36 PM 55.2°F12.9°C 47.5°F8.6°C 75% 2.9 mph WSW4.7 kmh WSW 8.1 mph13.0 kmh 30.21 in1023.0 mb 0.00 in0.0 mm 0.00 in0.0 mm 0.00 in0.0 mm
12:46 PM 56.1°F13.4°C 46.8°F8.2°C 71% 4.0 mph SE6.4 kmh SE 8.9 mph14.3 kmh 30.20 in1022.7 mb 0.00 in0.0 mm 0.00 in0.0 mm 0.00 in0.0 mm
12:56 PM 56.5°F13.6°C 47.1°F8.4°C 71% 4.0 mph SSW6.4 kmh SSW 8.9 mph14.3 kmh 30.20 in1022.7 mb 0.00 in0.0 mm 0.00 in0.0 mm 0.00 in0.0 mm
01:06 PM 56.1°F13.4°C 46.8°F8.2°C 71% 4.0 mph W6.4 kmh W 11.0 mph17.7 kmh 30.19 in1022.4 mb 0.00 in0.0 mm 0.00 in0.0 mm 0.00 in0.0 mm
01:16 PM 55.2°F12.9°C 45.7°F7.6°C 70% 4.9 mph WNW7.9 kmh WNW 15.0 mph24.1 kmh 30.19 in1022.4 mb 0.00 in0.0 mm 0.00 in0.0 mm 0.00 in0.0 mm
01:26 PM 54.3°F12.4°C 45.5°F7.5°C 72% 4.0 mph SSW6.4 kmh SSW 10.1 mph16.3 kmh 30.19 in1022.4 mb 0.00 in0.0 mm 0.00 in0.0 mm 0.00 in0.0 mm
01:36 PM 56.7°F13.7°C 45.0°F7.2°C 65% 4.9 mph W7.9 kmh W 16.1 mph25.9 kmh 30.18 in1022.0 mb 0.00 in0.0 mm 0.00 in0.0 mm 0.00 in0.0 mm
01:46 PM 57.4°F14.1°C 43.7°F6.5°C 60% 6.0 mph NW9.7 kmh NW 13.0 mph20.9 kmh 30.18 in1022.0 mb 0.00 in0.0 mm 0.00 in0.0 mm 0.00 in0.0 mm
01:56 PM 57.9°F14.4°C 45.9°F7.7°C 64% 6.0 mph W9.7 kmh W 12.1 mph19.5 kmh 30.17 in1021.7 mb 0.00 in0.0 mm 0.00 in0.0 mm 0.00 in0.0 mm
02:06 PM 58.3°F14.6°C 45.7°F7.6°C 63% 4.9 mph W7.9 kmh W 10.1 mph16.3 kmh 30.17 in1021.7 mb 0.00 in0.0 mm 0.00 in0.0 mm 0.00 in0.0 mm
02:16 PM 57.4°F14.1°C 45.3°F7.4°C 64% 6.0 mph WNW9.7 kmh WNW 12.1 mph19.5 kmh 30.17 in1021.7 mb 0.00 in0.0 mm 0.00 in0.0 mm 0.00 in0.0 mm
02:26 PM 57.7°F14.3°C 44.8°F7.1°C 62% 6.0 mph WSW9.7 kmh WSW 12.1 mph19.5 kmh 30.17 in1021.7 mb 0.00 in0.0 mm 0.00 in0.0 mm 0.00 in0.0 mm
02:36 PM 57.6°F14.2°C 45.5°F7.5°C 64% 6.0 mph W9.7 kmh W 12.1 mph19.5 kmh 30.17 in1021.7 mb 0.00 in0.0 mm 0.00 in0.0 mm 0.00 in0.0 mm
02:46 PM 57.6°F14.2°C 44.6°F7.0°C 62% 6.0 mph W9.7 kmh W 12.1 mph19.5 kmh 30.17 in1021.7 mb 0.00 in0.0 mm 0.00 in0.0 mm 0.00 in0.0 mm
02:56 PM 57.7°F14.3°C 44.4°F6.9°C 61% 6.9 mph SW11.1 kmh SW 16.1 mph25.9 kmh 30.17 in1021.7 mb 0.00 in0.0 mm 0.00 in0.0 mm 0.00 in0.0 mm
03:06 PM 57.2°F14.0°C 44.2°F6.8°C 62% 6.0 mph W9.7 kmh W 12.1 mph19.5 kmh 30.17 in1021.7 mb 0.00 in0.0 mm 0.00 in0.0 mm 0.00 in0.0 mm
03:16 PM 57.0°F13.9°C 45.0°F7.2°C 64% 6.0 mph W9.7 kmh W 12.1 mph19.5 kmh 30.17 in1021.7 mb 0.00 in0.0 mm 0.00 in0.0 mm 0.00 in0.0 mm
03:26 PM 57.4°F14.1°C 44.4°F6.9°C 62% 6.0 mph WSW9.7 kmh WSW 12.1 mph19.5 kmh 30.16 in1021.3 mb 0.00 in0.0 mm 0.00 in0.0 mm 0.00 in0.0 mm
03:36 PM 58.3°F14.6°C 44.4°F6.9°C 60% 6.0 mph WSW9.7 kmh WSW 16.1 mph25.9 kmh 30.16 in1021.3 mb 0.00 in0.0 mm 0.00 in0.0 mm 0.00 in0.0 mm
03:46 PM 57.6°F14.2°C 43.7°F6.5°C 60% 6.9 mph SW11.1 kmh SW 14.1 mph22.7 kmh 30.16 in1021.3 mb 0.00 in0.0 mm 0.00 in0.0 mm 0.00 in0.0 mm
03:56 PM 57.7°F14.3°C 43.0°F6.1°C 58% 4.9 mph W7.9 kmh W 10.1 mph16.3 kmh 30.16 in1021.3 mb 0.00 in0.0 mm 0.00 in0.0 mm 0.00 in0.0 mm
04:06 PM 57.6°F14.2°C 44.6°F7.0°C 62% 6.9 mph SW11.1 kmh SW 14.1 mph22.7 kmh 30.16 in1021.3 mb 0.00 in0.0 mm 0.00 in0.0 mm 0.00 in0.0 mm
04:16 PM 57.4°F14.1°C 44.1°F6.7°C 61% 6.0 mph W9.7 kmh W 11.0 mph17.7 kmh 30.16 in1021.3 mb 0.00 in0.0 mm 0.00 in0.0 mm 0.00 in0.0 mm
04:26 PM 56.8°F13.8°C 43.9°F6.6°C 62% 6.9 mph WSW11.1 kmh WSW 13.0 mph20.9 kmh 30.15 in1021.0 mb 0.00 in0.0 mm 0.00 in0.0 mm 0.00 in0.0 mm
04:36 PM 56.7°F13.7°C 43.7°F6.5°C 62% 6.0 mph WNW9.7 kmh WNW 14.1 mph22.7 kmh 30.15 in1021.0 mb 0.00 in0.0 mm 0.00 in0.0 mm 0.00 in0.0 mm
04:46 PM 56.5°F13.6°C 44.4°F6.9°C 64% 6.9 mph W11.1 kmh W 13.0 mph20.9 kmh 30.15 in1021.0 mb 0.00 in0.0 mm 0.00 in0.0 mm 0.00 in0.0 mm
04:56 PM 56.3°F13.5°C 43.9°F6.6°C 63% 4.9 mph WSW7.9 kmh WSW 11.0 mph17.7 kmh 30.15 in1021.0 mb 0.00 in0.0 mm 0.00 in0.0 mm 0.00 in0.0 mm
05:06 PM 55.9°F13.3°C 44.4°F6.9°C 65% 4.9 mph W7.9 kmh W 10.1 mph16.3 kmh 30.15 in1021.0 mb 0.00 in0.0 mm 0.00 in0.0 mm 0.00 in0.0 mm
05:16 PM 55.6°F13.1°C 44.4°F6.9°C 66% 4.0 mph WSW6.4 kmh WSW 11.0 mph17.7 kmh 30.16 in1021.3 mb 0.00 in0.0 mm 0.00 in0.0 mm 0.00 in0.0 mm
05:26 PM 55.0°F12.8°C 44.2°F6.8°C 67% 4.0 mph WNW6.4 kmh WNW 13.0 mph20.9 kmh 30.15 in1021.0 mb 0.00 in0.0 mm 0.00 in0.0 mm 0.00 in0.0 mm
05:36 PM 54.5°F12.5°C 44.2°F6.8°C 68% 4.0 mph SW6.4 kmh SW 12.1 mph19.5 kmh 30.16 in1021.3 mb 0.00 in0.0 mm 0.00 in0.0 mm 0.00 in0.0 mm
05:46 PM 54.0°F12.2°C 44.1°F6.7°C 69% 2.9 mph SW4.7 kmh SW 10.1 mph16.3 kmh 30.16 in1021.3 mb 0.00 in0.0 mm 0.00 in0.0 mm 0.00 in0.0 mm
05:56 PM 53.4°F11.9°C 44.2°F6.8°C 71% 0.9 mph WSW1.4 kmh WSW 4.9 mph7.9 kmh 30.16 in1021.3 mb 0.00 in0.0 mm 0.00 in0.0 mm 0.00 in0.0 mm
06:06 PM 52.9°F11.6°C 44.1°F6.7°C 72% 0.9 mph S1.4 kmh S 4.0 mph6.4 kmh 30.16 in1021.3 mb 0.00 in0.0 mm 0.00 in0.0 mm 0.00 in0.0 mm
06:16 PM 52.3°F11.3°C 43.9°F6.6°C 73% Calm Calm 2.0 mph3.2 kmh 30.16 in1021.3 mb 0.00 in0.0 mm 0.00 in0.0 mm 0.00 in0.0 mm
06:26 PM 52.0°F11.1°C 43.5°F6.4°C 73% Calm Calm 2.0 mph3.2 kmh 30.16 in1021.3 mb 0.00 in0.0 mm 0.00 in0.0 mm 0.00 in0.0 mm
06:36 PM 51.6°F10.9°C 43.5°F6.4°C 74% 0.9 mph SSE1.4 kmh SSE 2.0 mph3.2 kmh 30.16 in1021.3 mb 0.00 in0.0 mm 0.00 in0.0 mm 0.00 in0.0 mm
06:46 PM 51.4°F10.8°C 43.5°F6.4°C 74% 0.9 mph SSE1.4 kmh SSE 2.0 mph3.2 kmh 30.16 in1021.3 mb 0.00 in0.0 mm 0.00 in0.0 mm 0.00 in0.0 mm
06:56 PM 51.3°F10.7°C 43.3°F6.3°C 74% 0.9 mph SSE1.4 kmh SSE 3.0 mph4.8 kmh 30.16 in1021.3 mb 0.00 in0.0 mm 0.00 in0.0 mm 0.00 in0.0 mm
07:06 PM 51.3°F10.7°C 43.3°F6.3°C 74% 0.9 mph SW1.4 kmh SW 2.0 mph3.2 kmh 30.16 in1021.3 mb 0.00 in0.0 mm 0.00 in0.0 mm 0.00 in0.0 mm
07:16 PM 51.1°F10.6°C 43.2°F6.2°C 74% Calm Calm 0.9 mph1.4 kmh 30.16 in1021.3 mb 0.00 in0.0 mm 0.00 in0.0 mm 0.00 in0.0 mm
07:26 PM 50.7°F10.4°C 43.2°F6.2°C 75% Calm Calm 2.0 mph3.2 kmh 30.17 in1021.7 mb 0.00 in0.0 mm 0.00 in0.0 mm 0.00 in0.0 mm
07:36 PM 50.4°F10.2°C 43.2°F6.2°C 76% Calm Calm 0.9 mph1.4 kmh 30.17 in1021.7 mb 0.00 in0.0 mm 0.00 in0.0 mm 0.00 in0.0 mm
07:46 PM 50.4°F10.2°C 43.3°F6.3°C 77% Calm Calm 0.9 mph1.4 kmh 30.17 in1021.7 mb 0.00 in0.0 mm 0.00 in0.0 mm 0.00 in0.0 mm
07:56 PM 50.4°F10.2°C 43.3°F6.3°C 77% Calm Calm 0.9 mph1.4 kmh 30.17 in1021.7 mb 0.00 in0.0 mm 0.00 in0.0 mm 0.00 in0.0 mm
08:06 PM 49.6°F9.8°C 42.8°F6.0°C 77% Calm Calm 0.9 mph1.4 kmh 30.17 in1021.7 mb 0.00 in0.0 mm 0.00 in0.0 mm 0.00 in0.0 mm
08:16 PM 48.6°F9.2°C 42.3°F5.7°C 79% Calm Calm 0.9 mph1.4 kmh 30.17 in1021.7 mb 0.00 in0.0 mm 0.00 in0.0 mm 0.00 in0.0 mm
08:26 PM 48.4°F9.1°C 42.4°F5.8°C 80% Calm Calm 0.9 mph1.4 kmh 30.17 in1021.7 mb 0.00 in0.0 mm 0.00 in0.0 mm 0.00 in0.0 mm
08:36 PM 48.0°F8.9°C 42.1°F5.6°C 80% Calm Calm 1.0 mph1.6 kmh 30.17 in1021.7 mb 0.00 in0.0 mm 0.00 in0.0 mm 0.00 in0.0 mm
08:46 PM 47.8°F8.8°C 42.3°F5.7°C 81% Calm Calm 2.0 mph3.2 kmh 30.17 in1021.7 mb 0.00 in0.0 mm 0.00 in0.0 mm 0.00 in0.0 mm
08:56 PM 48.0°F8.9°C 42.8°F6.0°C 82% 0.9 mph SE1.4 kmh SE 2.0 mph3.2 kmh 30.17 in1021.7 mb 0.00 in0.0 mm 0.00 in0.0 mm 0.00 in0.0 mm
09:06 PM 48.4°F9.1°C 43.2°F6.2°C 82% 0.9 mph SE1.4 kmh SE 3.0 mph4.8 kmh 30.17 in1021.7 mb 0.00 in0.0 mm 0.00 in0.0 mm 0.00 in0.0 mm
09:16 PM 48.2°F9.0°C 43.0°F6.1°C 82% 0.9 mph SE1.4 kmh SE 0.9 mph1.4 kmh 30.17 in1021.7 mb 0.00 in0.0 mm 0.00 in0.0 mm 0.00 in0.0 mm
09:26 PM 48.4°F9.1°C 43.2°F6.2°C 82% Calm Calm 0.9 mph1.4 kmh 30.17 in1021.7 mb 0.00 in0.0 mm 0.00 in0.0 mm 0.00 in0.0 mm
09:36 PM 48.4°F9.1°C 43.2°F6.2°C 82% Calm Calm 0.9 mph1.4 kmh 30.18 in1022.0 mb 0.00 in0.0 mm 0.00 in0.0 mm 0.00 in0.0 mm
09:46 PM 48.0°F8.9°C 42.8°F6.0°C 82% Calm Calm 2.0 mph3.2 kmh 30.18 in1022.0 mb 0.00 in0.0 mm 0.00 in0.0 mm 0.00 in0.0 mm
09:56 PM 48.0°F8.9°C 42.8°F6.0°C 82% Calm Calm -- 30.18 in1022.0 mb 0.00 in0.0 mm 0.00 in0.0 mm 0.00 in0.0 mm
10:06 PM 48.0°F8.9°C 43.2°F6.2°C 83% Calm Calm 1.0 mph1.6 kmh 30.18 in1022.0 mb 0.00 in0.0 mm 0.00 in0.0 mm 0.00 in0.0 mm
10:16 PM 48.4°F9.1°C 43.5°F6.4°C 83% Calm Calm 0.9 mph1.4 kmh 30.18 in1022.0 mb 0.00 in0.0 mm 0.00 in0.0 mm 0.00 in0.0 mm
10:26 PM 48.6°F9.2°C 43.9°F6.6°C 84% Calm Calm -- 30.18 in1022.0 mb 0.00 in0.0 mm 0.00 in0.0 mm 0.00 in0.0 mm
10:36 PM 48.7°F9.3°C 43.9°F6.6°C 83% Calm Calm 2.0 mph3.2 kmh 30.18 in1022.0 mb 0.00 in0.0 mm 0.00 in0.0 mm 0.00 in0.0 mm
10:46 PM 49.1°F9.5°C 43.9°F6.6°C 82% Calm Calm 0.9 mph1.4 kmh 30.17 in1021.7 mb 0.00 in0.0 mm 0.00 in0.0 mm 0.00 in0.0 mm
10:56 PM 49.3°F9.6°C 43.7°F6.5°C 81% Calm Calm 0.9 mph1.4 kmh 30.17 in1021.7 mb 0.00 in0.0 mm 0.00 in0.0 mm 0.00 in0.0 mm
11:06 PM 49.3°F9.6°C 43.0°F6.1°C 79% Calm Calm 7.0 mph11.3 kmh 30.18 in1022.0 mb 0.00 in0.0 mm 0.00 in0.0 mm 0.00 in0.0 mm
11:16 PM 48.7°F9.3°C 42.8°F6.0°C 80% Calm Calm 2.0 mph3.2 kmh 30.18 in1022.0 mb 0.00 in0.0 mm 0.00 in0.0 mm 0.00 in0.0 mm
11:26 PM 48.4°F9.1°C 42.4°F5.8°C 80% Calm Calm 0.9 mph1.4 kmh 30.18 in1022.0 mb 0.00 in0.0 mm 0.00 in0.0 mm 0.00 in0.0 mm
11:36 PM 48.9°F9.4°C 42.4°F5.8°C 78% 0.9 mph W1.4 kmh W 8.1 mph13.0 kmh 30.18 in1022.0 mb 0.00 in0.0 mm 0.00 in0.0 mm 0.00 in0.0 mm
11:46 PM 48.9°F9.4°C 42.4°F5.8°C 78% 0.9 mph W1.4 kmh W 2.9 mph4.7 kmh 30.18 in1022.0 mb 0.00 in0.0 mm 0.00 in0.0 mm 0.00 in0.0 mm
11:56 PM 48.9°F9.4°C 42.1°F5.6°C 77% 0.9 mph SW1.4 kmh SW 4.0 mph6.4 kmh 30.18 in1022.0 mb 0.00 in0.0 mm 0.00 in0.0 mm 0.00 in0.0 mm